sensor_id;sensor_type;location;lat;lon;timestamp;P1;durP1;ratioP1;P2;durP2;ratioP2
29214;SDS011;16252;49.816;7.964;2023-05-24T00:01:49;7.78;;;4.38;;
29214;SDS011;16252;49.816;7.964;2023-05-24T00:04:15;9.48;;;5.05;;
29214;SDS011;16252;49.816;7.964;2023-05-24T00:06:40;9.68;;;4.03;;
29214;SDS011;16252;49.816;7.964;2023-05-24T00:09:06;5.30;;;3.42;;
29214;SDS011;16252;49.816;7.964;2023-05-24T00:11:32;8.45;;;3.83;;
29214;SDS011;16252;49.816;7.964;2023-05-24T00:13:57;5.07;;;3.45;;
29214;SDS011;16252;49.816;7.964;2023-05-24T00:16:22;6.85;;;4.03;;
29214;SDS011;16252;49.816;7.964;2023-05-24T00:18:48;7.85;;;4.50;;
29214;SDS011;16252;49.816;7.964;2023-05-24T00:21:13;7.35;;;4.30;;
29214;SDS011;16252;49.816;7.964;2023-05-24T00:23:39;8.93;;;4.70;;
29214;SDS011;16252;49.816;7.964;2023-05-24T00:26:06;9.60;;;4.20;;
29214;SDS011;16252;49.816;7.964;2023-05-24T00:28:32;10.02;;;4.38;;
29214;SDS011;16252;49.816;7.964;2023-05-24T00:30:58;8.82;;;3.90;;
29214;SDS011;16252;49.816;7.964;2023-05-24T00:33:23;6.72;;;3.72;;
29214;SDS011;16252;49.816;7.964;2023-05-24T00:35:49;6.43;;;3.75;;
29214;SDS011;16252;49.816;7.964;2023-05-24T00:38:20;6.45;;;3.42;;
29214;SDS011;16252;49.816;7.964;2023-05-24T00:40:46;5.28;;;3.80;;
29214;SDS011;16252;49.816;7.964;2023-05-24T00:43:12;6.15;;;3.92;;
29214;SDS011;16252;49.816;7.964;2023-05-24T00:45:38;9.15;;;4.10;;
29214;SDS011;16252;49.816;7.964;2023-05-24T00:48:03;9.20;;;3.47;;
29214;SDS011;16252;49.816;7.964;2023-05-24T00:50:28;6.07;;;3.97;;
29214;SDS011;16252;49.816;7.964;2023-05-24T00:52:54;6.45;;;3.70;;
29214;SDS011;16252;49.816;7.964;2023-05-24T00:55:21;7.25;;;3.53;;
29214;SDS011;16252;49.816;7.964;2023-05-24T00:57:47;5.70;;;3.53;;
29214;SDS011;16252;49.816;7.964;2023-05-24T01:00:12;6.60;;;4.15;;
29214;SDS011;16252;49.816;7.964;2023-05-24T01:02:38;7.25;;;4.20;;
29214;SDS011;16252;49.816;7.964;2023-05-24T01:05:03;9.65;;;3.95;;
29214;SDS011;16252;49.816;7.964;2023-05-24T01:07:32;7.80;;;3.88;;
29214;SDS011;16252;49.816;7.964;2023-05-24T01:10:23;5.72;;;4.03;;
29214;SDS011;16252;49.816;7.964;2023-05-24T01:12:58;8.73;;;4.28;;
29214;SDS011;16252;49.816;7.964;2023-05-24T01:16:14;4.40;;;3.40;;
29214;SDS011;16252;49.816;7.964;2023-05-24T01:21:18;6.10;;;3.53;;
29214;SDS011;16252;49.816;7.964;2023-05-24T01:24:17;5.72;;;2.70;;
29214;SDS011;16252;49.816;7.964;2023-05-24T01:27:08;7.38;;;4.03;;
29214;SDS011;16252;49.816;7.964;2023-05-24T01:29:36;5.70;;;3.55;;
29214;SDS011;16252;49.816;7.964;2023-05-24T01:32:03;11.70;;;3.40;;
29214;SDS011;16252;49.816;7.964;2023-05-24T01:34:29;7.18;;;3.30;;
29214;SDS011;16252;49.816;7.964;2023-05-24T01:36:55;7.93;;;3.50;;
29214;SDS011;16252;49.816;7.964;2023-05-24T01:39:20;6.78;;;3.35;;
29214;SDS011;16252;49.816;7.964;2023-05-24T01:41:56;4.65;;;3.50;;
29214;SDS011;16252;49.816;7.964;2023-05-24T01:44:46;7.18;;;3.47;;
29214;SDS011;16252;49.816;7.964;2023-05-24T01:47:23;5.95;;;2.92;;
29214;SDS011;16252;49.816;7.964;2023-05-24T01:49:52;5.70;;;3.00;;
29214;SDS011;16252;49.816;7.964;2023-05-24T01:54:47;6.40;;;2.88;;
29214;SDS011;16252;49.816;7.964;2023-05-24T01:57:16;6.15;;;3.00;;
29214;SDS011;16252;49.816;7.964;2023-05-24T01:59:43;4.72;;;3.05;;
29214;SDS011;16252;49.816;7.964;2023-05-24T02:02:10;9.25;;;3.50;;
29214;SDS011;16252;49.816;7.964;2023-05-24T02:04:36;6.38;;;3.30;;
29214;SDS011;16252;49.816;7.964;2023-05-24T02:07:01;5.78;;;2.75;;
29214;SDS011;16252;49.816;7.964;2023-05-24T02:09:27;5.90;;;3.00;;
29214;SDS011;16252;49.816;7.964;2023-05-24T02:11:52;6.07;;;3.00;;
29214;SDS011;16252;49.816;7.964;2023-05-24T02:14:17;4.78;;;2.90;;
29214;SDS011;16252;49.816;7.964;2023-05-24T02:16:43;5.55;;;3.10;;
29214;SDS011;16252;49.816;7.964;2023-05-24T02:19:11;8.02;;;3.33;;
29214;SDS011;16252;49.816;7.964;2023-05-24T02:21:36;4.00;;;2.90;;
29214;SDS011;16252;49.816;7.964;2023-05-24T02:24:02;5.78;;;3.42;;
29214;SDS011;16252;49.816;7.964;2023-05-24T02:26:27;5.13;;;2.80;;
29214;SDS011;16252;49.816;7.964;2023-05-24T02:28:52;6.28;;;2.80;;
29214;SDS011;16252;49.816;7.964;2023-05-24T02:31:18;5.45;;;3.03;;
29214;SDS011;16252;49.816;7.964;2023-05-24T02:33:43;7.05;;;3.00;;
29214;SDS011;16252;49.816;7.964;2023-05-24T02:36:08;7.35;;;2.97;;
29214;SDS011;16252;49.816;7.964;2023-05-24T02:38:34;7.80;;;2.90;;
29214;SDS011;16252;49.816;7.964;2023-05-24T02:41:01;7.85;;;3.33;;
29214;SDS011;16252;49.816;7.964;2023-05-24T02:43:26;6.20;;;3.42;;
29214;SDS011;16252;49.816;7.964;2023-05-24T02:45:51;6.65;;;2.88;;
29214;SDS011;16252;49.816;7.964;2023-05-24T02:48:17;5.68;;;2.75;;
29214;SDS011;16252;49.816;7.964;2023-05-24T02:50:42;6.28;;;2.72;;
29214;SDS011;16252;49.816;7.964;2023-05-24T02:53:07;5.15;;;2.50;;
29214;SDS011;16252;49.816;7.964;2023-05-24T02:55:32;4.13;;;2.33;;
29214;SDS011;16252;49.816;7.964;2023-05-24T02:57:58;7.40;;;2.80;;
29214;SDS011;16252;49.816;7.964;2023-05-24T03:00:23;4.93;;;2.63;;
29214;SDS011;16252;49.816;7.964;2023-05-24T03:02:48;6.88;;;2.95;;
29214;SDS011;16252;49.816;7.964;2023-05-24T03:05:15;4.13;;;2.20;;
29214;SDS011;16252;49.816;7.964;2023-05-24T03:07:41;6.53;;;2.65;;
29214;SDS011;16252;49.816;7.964;2023-05-24T03:10:06;6.38;;;2.35;;
29214;SDS011;16252;49.816;7.964;2023-05-24T03:12:32;5.45;;;2.55;;
29214;SDS011;16252;49.816;7.964;2023-05-24T03:14:57;5.70;;;2.70;;
29214;SDS011;16252;49.816;7.964;2023-05-24T03:17:22;9.10;;;3.10;;
29214;SDS011;16252;49.816;7.964;2023-05-24T03:19:47;7.25;;;2.63;;
29214;SDS011;16252;49.816;7.964;2023-05-24T03:22:13;5.40;;;2.80;;
29214;SDS011;16252;49.816;7.964;2023-05-24T03:24:38;7.65;;;2.78;;
29214;SDS011;16252;49.816;7.964;2023-05-24T03:27:04;4.60;;;2.67;;
29214;SDS011;16252;49.816;7.964;2023-05-24T03:29:30;8.50;;;3.08;;
29214;SDS011;16252;49.816;7.964;2023-05-24T03:31:56;6.47;;;2.70;;
29214;SDS011;16252;49.816;7.964;2023-05-24T03:34:21;6.40;;;2.60;;
29214;SDS011;16252;49.816;7.964;2023-05-24T03:36:46;4.00;;;2.30;;
29214;SDS011;16252;49.816;7.964;2023-05-24T03:39:12;6.80;;;2.88;;
29214;SDS011;16252;49.816;7.964;2023-05-24T03:41:37;6.60;;;2.60;;
29214;SDS011;16252;49.816;7.964;2023-05-24T03:44:02;5.88;;;2.42;;
29214;SDS011;16252;49.816;7.964;2023-05-24T03:46:28;8.50;;;2.25;;
29214;SDS011;16252;49.816;7.964;2023-05-24T03:48:53;6.53;;;2.45;;
29214;SDS011;16252;49.816;7.964;2023-05-24T03:51:18;5.03;;;2.30;;
29214;SDS011;16252;49.816;7.964;2023-05-24T03:53:44;5.30;;;2.35;;
29214;SDS011;16252;49.816;7.964;2023-05-24T03:56:09;4.90;;;2.45;;
29214;SDS011;16252;49.816;7.964;2023-05-24T03:58:34;5.03;;;2.45;;
29214;SDS011;16252;49.816;7.964;2023-05-24T04:00:59;5.60;;;2.33;;
29214;SDS011;16252;49.816;7.964;2023-05-24T04:03:25;5.80;;;2.30;;
29214;SDS011;16252;49.816;7.964;2023-05-24T04:05:50;9.60;;;2.67;;
29214;SDS011;16252;49.816;7.964;2023-05-24T04:08:16;4.97;;;2.40;;
29214;SDS011;16252;49.816;7.964;2023-05-24T04:10:41;6.90;;;2.70;;
29214;SDS011;16252;49.816;7.964;2023-05-24T04:13:07;6.28;;;2.35;;
29214;SDS011;16252;49.816;7.964;2023-05-24T04:15:32;5.68;;;2.40;;
29214;SDS011;16252;49.816;7.964;2023-05-24T04:17:57;5.88;;;2.47;;
29214;SDS011;16252;49.816;7.964;2023-05-24T04:20:24;6.97;;;2.30;;
29214;SDS011;16252;49.816;7.964;2023-05-24T04:22:51;5.68;;;2.13;;
29214;SDS011;16252;49.816;7.964;2023-05-24T04:25:17;6.80;;;2.55;;
29214;SDS011;16252;49.816;7.964;2023-05-24T04:27:42;5.85;;;2.50;;
29214;SDS011;16252;49.816;7.964;2023-05-24T04:30:08;4.65;;;2.40;;
29214;SDS011;16252;49.816;7.964;2023-05-24T04:32:34;5.47;;;2.20;;
29214;SDS011;16252;49.816;7.964;2023-05-24T04:35:00;6.60;;;2.28;;
29214;SDS011;16252;49.816;7.964;2023-05-24T04:37:29;7.72;;;2.80;;
29214;SDS011;16252;49.816;7.964;2023-05-24T04:39:55;3.75;;;2.35;;
29214;SDS011;16252;49.816;7.964;2023-05-24T04:42:21;6.22;;;2.88;;
29214;SDS011;16252;49.816;7.964;2023-05-24T04:44:46;3.60;;;2.13;;
29214;SDS011;16252;49.816;7.964;2023-05-24T04:47:12;9.65;;;2.83;;
29214;SDS011;16252;49.816;7.964;2023-05-24T04:49:37;5.82;;;2.40;;
29214;SDS011;16252;49.816;7.964;2023-05-24T04:52:03;5.05;;;2.55;;
29214;SDS011;16252;49.816;7.964;2023-05-24T04:54:29;6.30;;;2.33;;
29214;SDS011;16252;49.816;7.964;2023-05-24T04:56:54;6.68;;;2.67;;
29214;SDS011;16252;49.816;7.964;2023-05-24T04:59:20;6.28;;;2.38;;
29214;SDS011;16252;49.816;7.964;2023-05-24T05:01:45;10.32;;;2.60;;
29214;SDS011;16252;49.816;7.964;2023-05-24T05:04:11;5.63;;;2.38;;
29214;SDS011;16252;49.816;7.964;2023-05-24T05:06:36;6.30;;;2.85;;
29214;SDS011;16252;49.816;7.964;2023-05-24T05:09:07;4.28;;;2.40;;
29214;SDS011;16252;49.816;7.964;2023-05-24T05:11:34;5.82;;;2.22;;
29214;SDS011;16252;49.816;7.964;2023-05-24T05:14:02;6.38;;;2.55;;
29214;SDS011;16252;49.816;7.964;2023-05-24T05:16:27;5.45;;;2.38;;
29214;SDS011;16252;49.816;7.964;2023-05-24T05:18:52;7.47;;;2.53;;
29214;SDS011;16252;49.816;7.964;2023-05-24T05:21:18;7.82;;;2.92;;
29214;SDS011;16252;49.816;7.964;2023-05-24T05:23:44;9.07;;;2.83;;
29214;SDS011;16252;49.816;7.964;2023-05-24T05:26:09;6.70;;;2.25;;
29214;SDS011;16252;49.816;7.964;2023-05-24T05:28:35;6.65;;;2.70;;
29214;SDS011;16252;49.816;7.964;2023-05-24T05:31:00;6.43;;;2.45;;
29214;SDS011;16252;49.816;7.964;2023-05-24T05:33:26;4.28;;;2.03;;
29214;SDS011;16252;49.816;7.964;2023-05-24T05:35:51;8.13;;;2.53;;
29214;SDS011;16252;49.816;7.964;2023-05-24T05:38:16;8.88;;;2.10;;
29214;SDS011;16252;49.816;7.964;2023-05-24T05:40:41;7.25;;;2.30;;
29214;SDS011;16252;49.816;7.964;2023-05-24T05:43:07;4.13;;;2.40;;
29214;SDS011;16252;49.816;7.964;2023-05-24T05:45:33;7.30;;;2.00;;
29214;SDS011;16252;49.816;7.964;2023-05-24T05:47:58;7.50;;;2.30;;
29214;SDS011;16252;49.816;7.964;2023-05-24T05:50:23;4.88;;;1.88;;
29214;SDS011;16252;49.816;7.964;2023-05-24T05:52:49;7.03;;;2.38;;
29214;SDS011;16252;49.816;7.964;2023-05-24T05:55:14;6.20;;;2.03;;
29214;SDS011;16252;49.816;7.964;2023-05-24T05:57:39;9.95;;;2.17;;
29214;SDS011;16252;49.816;7.964;2023-05-24T06:00:05;11.93;;;3.15;;
29214;SDS011;16252;49.816;7.964;2023-05-24T06:02:31;4.57;;;2.08;;
29214;SDS011;16252;49.816;7.964;2023-05-24T06:04:56;7.30;;;2.05;;
29214;SDS011;16252;49.816;7.964;2023-05-24T06:07:21;5.35;;;2.10;;
29214;SDS011;16252;49.816;7.964;2023-05-24T06:09:47;9.30;;;2.35;;
29214;SDS011;16252;49.816;7.964;2023-05-24T06:12:12;9.80;;;2.40;;
29214;SDS011;16252;49.816;7.964;2023-05-24T06:14:37;5.45;;;1.90;;
29214;SDS011;16252;49.816;7.964;2023-05-24T06:17:03;10.27;;;2.03;;
29214;SDS011;16252;49.816;7.964;2023-05-24T06:19:29;7.72;;;2.33;;
29214;SDS011;16252;49.816;7.964;2023-05-24T06:21:55;8.38;;;2.30;;
29214;SDS011;16252;49.816;7.964;2023-05-24T06:24:21;7.68;;;2.30;;
29214;SDS011;16252;49.816;7.964;2023-05-24T06:26:50;6.70;;;2.03;;
29214;SDS011;16252;49.816;7.964;2023-05-24T06:29:16;8.23;;;2.55;;
29214;SDS011;16252;49.816;7.964;2023-05-24T06:31:45;7.05;;;2.30;;
29214;SDS011;16252;49.816;7.964;2023-05-24T06:34:11;8.73;;;2.33;;
29214;SDS011;16252;49.816;7.964;2023-05-24T06:36:37;3.97;;;1.80;;
29214;SDS011;16252;49.816;7.964;2023-05-24T06:39:06;7.33;;;2.10;;
29214;SDS011;16252;49.816;7.964;2023-05-24T06:41:33;6.88;;;2.15;;
29214;SDS011;16252;49.816;7.964;2023-05-24T06:43:59;7.75;;;2.10;;
29214;SDS011;16252;49.816;7.964;2023-05-24T06:46:24;6.55;;;2.00;;
29214;SDS011;16252;49.816;7.964;2023-05-24T06:48:50;4.10;;;2.25;;
29214;SDS011;16252;49.816;7.964;2023-05-24T06:51:15;5.93;;;1.98;;
29214;SDS011;16252;49.816;7.964;2023-05-24T06:53:41;4.43;;;1.77;;
29214;SDS011;16252;49.816;7.964;2023-05-24T06:56:06;5.78;;;1.70;;
29214;SDS011;16252;49.816;7.964;2023-05-24T06:58:33;6.45;;;2.20;;
29214;SDS011;16252;49.816;7.964;2023-05-24T07:00:59;6.07;;;2.08;;
29214;SDS011;16252;49.816;7.964;2023-05-24T07:03:24;4.78;;;2.10;;
29214;SDS011;16252;49.816;7.964;2023-05-24T07:05:50;8.85;;;2.10;;
29214;SDS011;16252;49.816;7.964;2023-05-24T07:08:15;6.18;;;1.92;;
29214;SDS011;16252;49.816;7.964;2023-05-24T07:10:41;6.82;;;1.80;;
29214;SDS011;16252;49.816;7.964;2023-05-24T07:13:07;8.95;;;2.30;;
29214;SDS011;16252;49.816;7.964;2023-05-24T07:15:33;4.75;;;1.90;;
29214;SDS011;16252;49.816;7.964;2023-05-24T07:17:58;5.13;;;1.55;;
29214;SDS011;16252;49.816;7.964;2023-05-24T07:20:24;6.90;;;2.00;;
29214;SDS011;16252;49.816;7.964;2023-05-24T07:22:49;5.90;;;2.50;;
29214;SDS011;16252;49.816;7.964;2023-05-24T07:25:15;5.40;;;2.22;;
29214;SDS011;16252;49.816;7.964;2023-05-24T07:27:41;4.28;;;1.75;;
29214;SDS011;16252;49.816;7.964;2023-05-24T07:30:07;5.25;;;1.50;;
29214;SDS011;16252;49.816;7.964;2023-05-24T07:32:32;8.30;;;2.20;;
29214;SDS011;16252;49.816;7.964;2023-05-24T07:34:58;3.95;;;1.58;;
29214;SDS011;16252;49.816;7.964;2023-05-24T07:37:23;2.78;;;1.25;;
29214;SDS011;16252;49.816;7.964;2023-05-24T07:39:49;5.57;;;1.35;;
29214;SDS011;16252;49.816;7.964;2023-05-24T07:42:15;5.10;;;1.48;;
29214;SDS011;16252;49.816;7.964;2023-05-24T07:44:40;9.35;;;2.42;;
29214;SDS011;16252;49.816;7.964;2023-05-24T07:47:06;4.90;;;1.40;;
29214;SDS011;16252;49.816;7.964;2023-05-24T07:49:31;5.88;;;2.13;;
29214;SDS011;16252;49.816;7.964;2023-05-24T07:51:56;3.72;;;1.55;;
29214;SDS011;16252;49.816;7.964;2023-05-24T07:54:23;4.22;;;1.55;;
29214;SDS011;16252;49.816;7.964;2023-05-24T07:56:49;4.47;;;1.50;;
29214;SDS011;16252;49.816;7.964;2023-05-24T07:59:14;4.32;;;1.75;;
29214;SDS011;16252;49.816;7.964;2023-05-24T08:01:39;4.60;;;1.77;;
29214;SDS011;16252;49.816;7.964;2023-05-24T08:04:05;4.50;;;1.55;;
29214;SDS011;16252;49.816;7.964;2023-05-24T08:06:32;3.78;;;1.60;;
29214;SDS011;16252;49.816;7.964;2023-05-24T08:08:58;5.07;;;1.60;;
29214;SDS011;16252;49.816;7.964;2023-05-24T08:11:24;3.72;;;1.40;;
29214;SDS011;16252;49.816;7.964;2023-05-24T08:13:50;4.05;;;1.27;;
29214;SDS011;16252;49.816;7.964;2023-05-24T08:16:15;3.72;;;1.65;;
29214;SDS011;16252;49.816;7.964;2023-05-24T08:18:41;6.00;;;2.08;;
29214;SDS011;16252;49.816;7.964;2023-05-24T08:21:06;4.18;;;1.70;;
29214;SDS011;16252;49.816;7.964;2023-05-24T08:23:32;5.68;;;1.58;;
29214;SDS011;16252;49.816;7.964;2023-05-24T08:25:58;3.95;;;1.55;;
29214;SDS011;16252;49.816;7.964;2023-05-24T08:28:23;4.68;;;1.55;;
29214;SDS011;16252;49.816;7.964;2023-05-24T08:30:49;3.00;;;1.60;;
29214;SDS011;16252;49.816;7.964;2023-05-24T08:33:15;2.50;;;1.33;;
29214;SDS011;16252;49.816;7.964;2023-05-24T08:35:43;6.67;;;1.77;;
29214;SDS011;16252;49.816;7.964;2023-05-24T08:38:08;4.55;;;1.52;;
29214;SDS011;16252;49.816;7.964;2023-05-24T08:40:33;5.63;;;1.85;;
29214;SDS011;16252;49.816;7.964;2023-05-24T08:42:59;5.75;;;1.80;;
29214;SDS011;16252;49.816;7.964;2023-05-24T08:45:25;3.92;;;1.58;;
29214;SDS011;16252;49.816;7.964;2023-05-24T08:47:54;3.95;;;1.60;;
29214;SDS011;16252;49.816;7.964;2023-05-24T08:50:20;4.18;;;1.73;;
29214;SDS011;16252;49.816;7.964;2023-05-24T08:52:46;3.22;;;1.50;;
29214;SDS011;16252;49.816;7.964;2023-05-24T08:55:12;2.33;;;1.38;;
29214;SDS011;16252;49.816;7.964;2023-05-24T08:57:38;4.85;;;1.67;;
29214;SDS011;16252;49.816;7.964;2023-05-24T09:00:08;3.95;;;1.50;;
29214;SDS011;16252;49.816;7.964;2023-05-24T09:02:38;2.92;;;1.50;;
29214;SDS011;16252;49.816;7.964;2023-05-24T09:05:06;2.58;;;1.25;;
29214;SDS011;16252;49.816;7.964;2023-05-24T09:07:34;4.93;;;1.50;;
29214;SDS011;16252;49.816;7.964;2023-05-24T09:10:03;4.10;;;1.50;;
29214;SDS011;16252;49.816;7.964;2023-05-24T09:12:29;2.90;;;1.48;;
29214;SDS011;16252;49.816;7.964;2023-05-24T09:14:57;5.60;;;1.80;;
29214;SDS011;16252;49.816;7.964;2023-05-24T09:17:23;2.95;;;1.40;;
29214;SDS011;16252;49.816;7.964;2023-05-24T09:19:49;3.90;;;1.55;;
29214;SDS011;16252;49.816;7.964;2023-05-24T09:22:15;5.50;;;1.88;;
29214;SDS011;16252;49.816;7.964;2023-05-24T09:24:47;3.25;;;1.52;;
29214;SDS011;16252;49.816;7.964;2023-05-24T09:27:16;4.22;;;1.45;;
29214;SDS011;16252;49.816;7.964;2023-05-24T09:29:47;7.20;;;1.60;;
29214;SDS011;16252;49.816;7.964;2023-05-24T09:32:14;5.72;;;1.92;;
29214;SDS011;16252;49.816;7.964;2023-05-24T09:34:40;2.47;;;1.58;;
29214;SDS011;16252;49.816;7.964;2023-05-24T09:37:13;4.82;;;1.83;;
29214;SDS011;16252;49.816;7.964;2023-05-24T09:39:40;4.57;;;1.70;;
29214;SDS011;16252;49.816;7.964;2023-05-24T09:42:06;4.00;;;1.45;;
29214;SDS011;16252;49.816;7.964;2023-05-24T09:44:32;3.47;;;1.70;;
29214;SDS011;16252;49.816;7.964;2023-05-24T09:47:00;4.13;;;2.05;;
29214;SDS011;16252;49.816;7.964;2023-05-24T09:49:30;4.93;;;1.52;;
29214;SDS011;16252;49.816;7.964;2023-05-24T09:51:56;3.35;;;1.83;;
29214;SDS011;16252;49.816;7.964;2023-05-24T09:54:22;2.55;;;1.17;;
29214;SDS011;16252;49.816;7.964;2023-05-24T09:56:50;2.17;;;1.60;;
29214;SDS011;16252;49.816;7.964;2023-05-24T09:59:16;2.60;;;1.23;;
29214;SDS011;16252;49.816;7.964;2023-05-24T10:01:42;3.92;;;1.52;;
29214;SDS011;16252;49.816;7.964;2023-05-24T10:04:09;3.35;;;1.42;;
29214;SDS011;16252;49.816;7.964;2023-05-24T10:06:34;2.17;;;1.60;;
29214;SDS011;16252;49.816;7.964;2023-05-24T10:09:04;3.08;;;1.75;;
29214;SDS011;16252;49.816;7.964;2023-05-24T10:11:31;2.38;;;1.27;;
29214;SDS011;16252;49.816;7.964;2023-05-24T10:13:57;3.45;;;1.67;;
29214;SDS011;16252;49.816;7.964;2023-05-24T10:16:23;2.67;;;1.40;;
29214;SDS011;16252;49.816;7.964;2023-05-24T10:18:49;3.58;;;1.65;;
29214;SDS011;16252;49.816;7.964;2023-05-24T10:21:14;3.35;;;1.73;;
29214;SDS011;16252;49.816;7.964;2023-05-24T10:23:42;3.53;;;1.58;;
29214;SDS011;16252;49.816;7.964;2023-05-24T10:26:09;2.53;;;1.35;;
29214;SDS011;16252;49.816;7.964;2023-05-24T10:28:46;4.05;;;1.83;;
29214;SDS011;16252;49.816;7.964;2023-05-24T10:31:23;3.17;;;1.50;;
29214;SDS011;16252;49.816;7.964;2023-05-24T10:33:51;4.20;;;1.80;;
29214;SDS011;16252;49.816;7.964;2023-05-24T10:36:20;10.73;;;1.88;;
29214;SDS011;16252;49.816;7.964;2023-05-24T10:38:47;2.45;;;1.33;;
29214;SDS011;16252;49.816;7.964;2023-05-24T10:41:13;4.28;;;1.70;;
29214;SDS011;16252;49.816;7.964;2023-05-24T10:43:39;4.03;;;1.55;;
29214;SDS011;16252;49.816;7.964;2023-05-24T10:46:06;4.10;;;2.10;;
29214;SDS011;16252;49.816;7.964;2023-05-24T10:48:34;2.90;;;1.60;;
29214;SDS011;16252;49.816;7.964;2023-05-24T10:51:18;3.50;;;1.55;;
29214;SDS011;16252;49.816;7.964;2023-05-24T10:53:56;6.18;;;1.98;;
29214;SDS011;16252;49.816;7.964;2023-05-24T10:56:22;3.88;;;2.10;;
29214;SDS011;16252;49.816;7.964;2023-05-24T11:04:07;3.00;;;2.08;;
29214;SDS011;16252;49.816;7.964;2023-05-24T11:06:46;2.53;;;1.60;;
29214;SDS011;16252;49.816;7.964;2023-05-24T11:09:19;3.13;;;1.75;;
29214;SDS011;16252;49.816;7.964;2023-05-24T11:11:45;5.07;;;2.05;;
29214;SDS011;16252;49.816;7.964;2023-05-24T11:14:16;3.05;;;1.80;;
29214;SDS011;16252;49.816;7.964;2023-05-24T11:16:44;3.58;;;1.63;;
29214;SDS011;16252;49.816;7.964;2023-05-24T11:19:15;5.13;;;2.10;;
29214;SDS011;16252;49.816;7.964;2023-05-24T11:21:43;6.28;;;2.33;;
29214;SDS011;16252;49.816;7.964;2023-05-24T11:24:09;4.45;;;2.00;;
29214;SDS011;16252;49.816;7.964;2023-05-24T11:26:35;5.13;;;2.25;;
29214;SDS011;16252;49.816;7.964;2023-05-24T11:29:01;4.15;;;1.60;;
29214;SDS011;16252;49.816;7.964;2023-05-24T11:31:28;8.02;;;2.42;;
29214;SDS011;16252;49.816;7.964;2023-05-24T11:33:53;5.72;;;1.98;;
29214;SDS011;16252;49.816;7.964;2023-05-24T11:36:19;4.07;;;1.90;;
29214;SDS011;16252;49.816;7.964;2023-05-24T11:38:48;5.50;;;2.60;;
29214;SDS011;16252;49.816;7.964;2023-05-24T11:41:13;10.10;;;1.93;;
29214;SDS011;16252;49.816;7.964;2023-05-24T11:43:39;5.10;;;1.73;;
29214;SDS011;16252;49.816;7.964;2023-05-24T11:46:05;4.18;;;1.85;;
29214;SDS011;16252;49.816;7.964;2023-05-24T11:48:31;4.95;;;2.00;;
29214;SDS011;16252;49.816;7.964;2023-05-24T11:50:57;4.63;;;2.15;;
29214;SDS011;16252;49.816;7.964;2023-05-24T11:53:23;4.35;;;1.90;;
29214;SDS011;16252;49.816;7.964;2023-05-24T11:55:49;6.57;;;2.25;;
29214;SDS011;16252;49.816;7.964;2023-05-24T11:58:21;5.30;;;2.20;;
29214;SDS011;16252;49.816;7.964;2023-05-24T12:00:47;2.80;;;1.60;;
29214;SDS011;16252;49.816;7.964;2023-05-24T12:03:13;4.93;;;1.90;;
29214;SDS011;16252;49.816;7.964;2023-05-24T12:05:38;4.40;;;1.98;;
29214;SDS011;16252;49.816;7.964;2023-05-24T12:08:07;5.30;;;2.08;;
29214;SDS011;16252;49.816;7.964;2023-05-24T12:10:34;4.40;;;2.00;;
29214;SDS011;16252;49.816;7.964;2023-05-24T12:13:04;5.57;;;2.35;;
29214;SDS011;16252;49.816;7.964;2023-05-24T12:15:31;3.35;;;2.10;;
29214;SDS011;16252;49.816;7.964;2023-05-24T12:17:56;4.82;;;2.10;;
29214;SDS011;16252;49.816;7.964;2023-05-24T12:20:22;5.03;;;2.22;;
29214;SDS011;16252;49.816;7.964;2023-05-24T12:22:51;4.32;;;2.30;;
29214;SDS011;16252;49.816;7.964;2023-05-24T12:25:18;4.60;;;2.20;;
29214;SDS011;16252;49.816;7.964;2023-05-24T12:30:21;6.10;;;1.70;;
29214;SDS011;16252;49.816;7.964;2023-05-24T12:32:47;3.38;;;1.80;;
29214;SDS011;16252;49.816;7.964;2023-05-24T12:35:13;6.30;;;2.20;;
29214;SDS011;16252;49.816;7.964;2023-05-24T12:37:42;3.30;;;1.67;;
29214;SDS011;16252;49.816;7.964;2023-05-24T12:40:14;5.70;;;2.42;;
29214;SDS011;16252;49.816;7.964;2023-05-24T12:42:45;5.30;;;2.15;;
29214;SDS011;16252;49.816;7.964;2023-05-24T12:45:24;4.88;;;2.42;;
29214;SDS011;16252;49.816;7.964;2023-05-24T12:47:52;5.97;;;2.30;;
29214;SDS011;16252;49.816;7.964;2023-05-24T12:50:18;6.75;;;2.58;;
29214;SDS011;16252;49.816;7.964;2023-05-24T12:52:45;5.22;;;2.20;;
29214;SDS011;16252;49.816;7.964;2023-05-24T12:55:11;6.55;;;2.50;;
29214;SDS011;16252;49.816;7.964;2023-05-24T12:57:37;5.00;;;2.05;;
29214;SDS011;16252;49.816;7.964;2023-05-24T13:00:03;5.07;;;2.30;;
29214;SDS011;16252;49.816;7.964;2023-05-24T13:02:29;4.50;;;2.05;;
29214;SDS011;16252;49.816;7.964;2023-05-24T13:04:55;5.03;;;2.17;;
29214;SDS011;16252;49.816;7.964;2023-05-24T13:07:20;3.92;;;2.10;;
29214;SDS011;16252;49.816;7.964;2023-05-24T13:09:46;4.18;;;2.30;;
29214;SDS011;16252;49.816;7.964;2023-05-24T13:12:12;5.03;;;2.08;;
29214;SDS011;16252;49.816;7.964;2023-05-24T13:14:37;8.98;;;2.35;;
29214;SDS011;16252;49.816;7.964;2023-05-24T13:17:02;4.45;;;2.30;;
29214;SDS011;16252;49.816;7.964;2023-05-24T13:19:28;9.15;;;2.80;;
29214;SDS011;16252;49.816;7.964;2023-05-24T13:21:53;7.78;;;2.70;;
29214;SDS011;16252;49.816;7.964;2023-05-24T13:24:19;6.03;;;2.50;;
29214;SDS011;16252;49.816;7.964;2023-05-24T13:26:44;4.80;;;1.95;;
29214;SDS011;16252;49.816;7.964;2023-05-24T13:29:10;5.63;;;2.22;;
29214;SDS011;16252;49.816;7.964;2023-05-24T13:31:35;6.40;;;2.70;;
29214;SDS011;16252;49.816;7.964;2023-05-24T13:34:04;5.93;;;2.63;;
29214;SDS011;16252;49.816;7.964;2023-05-24T13:36:30;5.65;;;2.70;;
29214;SDS011;16252;49.816;7.964;2023-05-24T13:39:03;5.97;;;2.50;;
29214;SDS011;16252;49.816;7.964;2023-05-24T13:41:29;5.60;;;2.22;;
29214;SDS011;16252;49.816;7.964;2023-05-24T13:43:54;5.57;;;2.40;;
29214;SDS011;16252;49.816;7.964;2023-05-24T13:46:20;7.53;;;2.50;;
29214;SDS011;16252;49.816;7.964;2023-05-24T13:48:46;8.60;;;2.95;;
29214;SDS011;16252;49.816;7.964;2023-05-24T13:51:12;5.55;;;2.17;;
29214;SDS011;16252;49.816;7.964;2023-05-24T13:53:37;7.15;;;2.88;;
29214;SDS011;16252;49.816;7.964;2023-05-24T13:56:02;7.30;;;2.58;;
29214;SDS011;16252;49.816;7.964;2023-05-24T13:58:28;6.18;;;2.75;;
29214;SDS011;16252;49.816;7.964;2023-05-24T14:00:53;5.63;;;2.67;;
29214;SDS011;16252;49.816;7.964;2023-05-24T14:03:20;4.50;;;2.45;;
29214;SDS011;16252;49.816;7.964;2023-05-24T14:05:45;4.13;;;2.22;;
29214;SDS011;16252;49.816;7.964;2023-05-24T14:08:11;5.10;;;2.10;;
29214;SDS011;16252;49.816;7.964;2023-05-24T14:10:36;6.97;;;2.70;;
29214;SDS011;16252;49.816;7.964;2023-05-24T14:13:02;7.78;;;2.47;;
29214;SDS011;16252;49.816;7.964;2023-05-24T14:15:28;4.60;;;2.15;;
29214;SDS011;16252;49.816;7.964;2023-05-24T14:17:54;5.03;;;2.15;;
29214;SDS011;16252;49.816;7.964;2023-05-24T14:20:24;5.40;;;2.42;;
29214;SDS011;16252;49.816;7.964;2023-05-24T14:22:50;5.35;;;2.40;;
29214;SDS011;16252;49.816;7.964;2023-05-24T14:25:15;5.72;;;2.50;;
29214;SDS011;16252;49.816;7.964;2023-05-24T14:27:40;5.10;;;2.15;;
29214;SDS011;16252;49.816;7.964;2023-05-24T14:30:08;4.30;;;2.45;;
29214;SDS011;16252;49.816;7.964;2023-05-24T14:32:33;7.40;;;3.17;;
29214;SDS011;16252;49.816;7.964;2023-05-24T14:34:59;4.80;;;2.22;;
29214;SDS011;16252;49.816;7.964;2023-05-24T14:37:24;4.68;;;2.25;;
29214;SDS011;16252;49.816;7.964;2023-05-24T14:39:49;5.22;;;2.67;;
29214;SDS011;16252;49.816;7.964;2023-05-24T14:42:14;6.88;;;2.25;;
29214;SDS011;16252;49.816;7.964;2023-05-24T14:44:40;6.10;;;2.45;;
29214;SDS011;16252;49.816;7.964;2023-05-24T14:47:05;3.90;;;2.05;;
29214;SDS011;16252;49.816;7.964;2023-05-24T14:49:31;5.75;;;2.20;;
29214;SDS011;16252;49.816;7.964;2023-05-24T14:51:56;4.30;;;2.42;;
29214;SDS011;16252;49.816;7.964;2023-05-24T14:54:21;6.78;;;2.28;;
29214;SDS011;16252;49.816;7.964;2023-05-24T14:56:46;4.93;;;2.38;;
29214;SDS011;16252;49.816;7.964;2023-05-24T14:59:12;7.63;;;2.22;;